createdAt,value
2022-10-17T00:08:49.575Z,28.48
2022-10-17T00:19:11.203Z,24.52
2022-10-17T00:29:34.086Z,22.67
2022-10-17T00:39:55.772Z,19.67
2022-10-17T00:50:19.478Z,20.08
2022-10-17T01:00:42.100Z,18.88
2022-10-17T01:11:14.519Z,18.00
2022-10-17T01:21:42.398Z,15.18
2022-10-17T01:32:10.324Z,18.15
2022-10-17T01:42:36.757Z,15.73
2022-10-17T01:53:04.136Z,16.63
2022-10-17T02:03:29.264Z,19.50
2022-10-17T02:14:14.405Z,15.75
2022-10-17T02:24:44.766Z,16.23
2022-10-17T02:35:15.110Z,17.20
2022-10-17T02:45:38.809Z,16.92
2022-10-17T02:56:07.142Z,14.93
2022-10-17T03:06:28.990Z,19.77
2022-10-17T03:16:51.800Z,18.02
2022-10-17T03:27:13.945Z,16.15
2022-10-17T03:37:36.794Z,14.45
2022-10-17T03:47:59.678Z,18.23
2022-10-17T03:58:22.988Z,17.40
2022-10-17T04:08:45.488Z,17.02
2022-10-17T04:19:14.062Z,16.73
2022-10-17T04:29:39.678Z,17.15
2022-10-17T04:40:11.723Z,17.42
2022-10-17T04:50:33.544Z,18.55
2022-10-17T05:01:14.755Z,18.95
2022-10-17T05:22:00.849Z,18.85
2022-10-17T05:32:23.728Z,21.30
2022-10-17T05:42:50.194Z,27.15
2022-10-17T05:53:13.366Z,25.52
2022-10-17T06:03:41.718Z,23.65
2022-10-17T06:14:05.248Z,24.92
2022-10-17T06:24:28.176Z,22.15
2022-10-17T06:35:00.736Z,19.90
2022-10-17T06:45:24.720Z,20.70
2022-10-17T06:56:19.596Z,18.55
2022-10-17T07:07:10.456Z,16.92
2022-10-17T07:17:36.319Z,18.35
2022-10-17T07:28:19.171Z,14.85
2022-10-17T07:38:42.101Z,12.88
2022-10-17T07:49:06.371Z,9.77
2022-10-17T07:59:28.682Z,19.30
2022-10-17T08:09:52.766Z,15.02
2022-10-17T08:20:14.919Z,12.60
2022-10-17T08:30:38.832Z,18.88
2022-10-17T08:41:02.986Z,6.33
2022-10-17T08:51:33.174Z,9.82
2022-10-17T09:01:59.727Z,9.75
2022-10-17T09:12:30.169Z,9.25
2022-10-17T09:22:58.033Z,8.95
2022-10-17T09:33:42.195Z,7.85
2022-10-17T09:44:21.612Z,12.85
2022-10-17T09:54:47.275Z,9.80
2022-10-17T10:05:17.958Z,8.93
2022-10-17T10:15:42.643Z,7.50
2022-10-17T10:26:12.473Z,8.50
2022-10-17T10:36:48.401Z,10.50
2022-10-17T10:47:18.026Z,9.07
2022-10-17T10:57:41.303Z,9.45
2022-10-17T11:08:11.563Z,13.48
2022-10-17T11:18:47.784Z,8.40
2022-10-17T11:29:12.397Z,15.68
2022-10-17T11:39:48.520Z,13.93
2022-10-17T12:01:15.113Z,16.95
2022-10-17T12:11:46.399Z,10.63
2022-10-17T12:22:20.738Z,16.95
2022-10-17T12:33:07.581Z,10.73
2022-10-17T12:54:16.042Z,15.40
2022-10-17T13:04:39.417Z,10.43
2022-10-17T13:15:04.670Z,11.45
2022-10-17T13:25:28.572Z,12.02
2022-10-17T13:36:05.705Z,15.65
2022-10-17T13:46:38.032Z,16.27
2022-10-17T13:57:00.998Z,11.07
2022-10-17T14:07:29.281Z,16.53
2022-10-17T14:17:57.514Z,12.70
2022-10-17T14:28:23.771Z,12.45
2022-10-17T14:38:50.998Z,10.90
2022-10-17T14:49:24.538Z,12.27
2022-10-17T14:59:55.387Z,11.80
2022-10-17T15:10:26.721Z,14.52
2022-10-17T15:20:52.674Z,13.77
2022-10-17T15:31:24.675Z,19.75
2022-10-17T15:41:48.028Z,11.50
2022-10-17T15:52:11.147Z,13.50
2022-10-17T16:02:33.392Z,14.07
2022-10-17T16:12:56.222Z,18.10
2022-10-17T16:23:17.685Z,24.50
2022-10-17T16:33:40.398Z,24.30
2022-10-17T16:44:06.907Z,28.33
2022-10-17T16:54:30.170Z,19.23
2022-10-17T17:04:51.376Z,15.90
2022-10-17T17:15:14.052Z,21.17
2022-10-17T17:25:35.827Z,23.52
2022-10-17T17:36:01.910Z,24.08
2022-10-17T17:46:24.973Z,17.40
2022-10-17T17:56:47.949Z,21.45
2022-10-17T18:07:09.190Z,21.83
2022-10-17T18:17:32.313Z,32.78
2022-10-17T18:27:53.603Z,29.92
2022-10-17T18:38:16.544Z,27.15
2022-10-17T18:48:40.967Z,24.95
2022-10-17T18:59:03.546Z,43.47
2022-10-17T19:09:24.732Z,22.88
2022-10-17T19:19:50.032Z,24.50
2022-10-17T19:30:12.700Z,23.80
2022-10-17T19:40:35.445Z,33.47
2022-10-17T19:50:57.078Z,24.23
2022-10-17T20:01:23.231Z,24.60
2022-10-17T20:11:44.814Z,26.80
2022-10-17T20:22:07.365Z,29.70
2022-10-17T20:32:29.005Z,35.22
2022-10-17T20:42:52.127Z,31.55
2022-10-17T21:04:06.208Z,39.60
2022-10-17T21:14:37.621Z,45.13
2022-10-17T21:25:00.270Z,35.17
2022-10-17T21:35:21.449Z,35.67
2022-10-17T21:45:44.060Z,37.75
2022-10-17T21:56:08.537Z,40.30
2022-10-17T22:06:39.836Z,38.97
2022-10-17T22:17:02.497Z,45.17
2022-10-17T22:27:25.576Z,41.58
2022-10-17T22:37:46.913Z,48.00
2022-10-17T22:48:09.610Z,56.15
2022-10-17T22:58:32.974Z,35.17
2022-10-17T23:08:56.083Z,40.63
2022-10-17T23:19:17.559Z,41.72
2022-10-17T23:29:40.235Z,51.72
2022-10-17T23:40:01.685Z,41.92
2022-10-17T23:50:24.775Z,40.72
